Daniela Morace — IJAJ2 — position and weather

sailwx.info

Track history (hours):
 
Tides and Currents Weather Stations Pressure Air Temp Water Temp Dewpoint Dewpoint Depression Visibility Wind Speed Wind Dir Waves Ship Positions

Daniela Morace

Last reported at 2014-Oct-31 15:14 UTC. Time now 2014-Nov-01 05:27 UTC.
Position N 38°20' E 015°09'.

Length 36 m; draft 1 m.

Type: Ship. MMSI: 247297500.

Date/timePositionNaut miles runAvg speedWind from/ knotsBaromVisibWave heightAir tempDewpointWater temp
2014-Oct-31 15:14N 38°20' E 015°09'913.1
2014-Oct-31 14:33N 38°13' E 015°15'9 8.7
2014-Oct-31 13:33N 38°21' E 015°11'7 1.0
2014-Oct-31 06:34N 38°16' E 015°16'10 0.7
2014-Oct-30 15:31N 38°22' E 015°06'1212.1
2014-Oct-30 14:33N 38°13' E 015°15'3 0.4
2014-Oct-30 06:33N 38°16' E 015°16'3 3.2
2014-Oct-30 05:33N 38°13' E 015°14'9 0.6
2014-Oct-29 15:16N 38°21' E 015°09'912.9
2014-Oct-29 14:34N 38°13' E 015°15'3 0.4
2014-Oct-29 06:33N 38°16' E 015°16'10 0.7
2014-Oct-28 15:27N 38°23' E 015°06'1213.8
2014-Oct-28 14:33N 38°13' E 015°15'8 8.2
2014-Oct-28 13:34N 38°20' E 015°09'6 0.9
2014-Oct-28 06:34N 38°16' E 015°16'6 0.4
2014-Oct-27 15:24N 38°20' E 015°10'8 9.3
2014-Oct-27 14:33N 38°13' E 015°15'6 6.2
2014-Oct-27 13:34N 38°18' E 015°11'6 0.8
2014-Oct-27 06:33N 38°14' E 015°16'1 1.0
2014-Oct-27 05:33N 38°13' E 015°14'7 0.5
2014-Oct-26 15:16N 38°20' E 015°10'810.9
2014-Oct-26 14:33N 38°13' E 015°15'5 4.7
2014-Oct-26 13:32N 38°18' E 015°13'3 0.4
2014-Oct-26 06:31N 38°15' E 015°15'8 0.5
2014-Oct-25 14:17N 38°21' E 015°08'1013.2
2014-Oct-25 13:34N 38°13' E 015°15'7 6.5
2014-Oct-25 12:34N 38°19' E 015°12'6 0.3
2014-Oct-24 17:33N 38°13' E 015°14'0 0.0
2014-Oct-24 16:33N 38°13' E 015°14'0 0.0
2014-Oct-24 15:33N 38°13' E 015°14'0 0.0
2014-Oct-24 14:33N 38°13' E 015°14'0 0.0
2014-Oct-24 13:33N 38°13' E 015°14'0 0.0
2014-Oct-24 12:33N 38°13' E 015°14'0 0.0
2014-Oct-24 11:33N 38°13' E 015°14'0 0.0
2014-Oct-24 10:33N 38°13' E 015°14'0 0.0
2014-Oct-24 09:33N 38°13' E 015°14'0 0.0
2014-Oct-24 08:33N 38°13' E 015°14'0 0.0
2014-Oct-24 07:33N 38°13' E 015°14'0 0.0
2014-Oct-24 06:33N 38°13' E 015°14'0 0.0
2014-Oct-23 17:18N 38°13' E 015°14'0 0.0
2014-Oct-23 16:34N 38°13' E 015°14'0 0.0
2014-Oct-23 15:33N 38°13' E 015°14'0 0.0
2014-Oct-23 14:34N 38°13' E 015°14'0 0.0
2014-Oct-23 13:33N 38°13' E 015°14'0 0.0
2014-Oct-23 12:33N 38°13' E 015°14'0 0.0
2014-Oct-23 11:33N 38°13' E 015°14'0 0.0
2014-Oct-23 10:33N 38°13' E 015°14'0 0.0
2014-Oct-23 09:34N 38°13' E 015°14'0 0.0
2014-Oct-23 08:33N 38°13' E 015°14'0 0.0
2014-Oct-23 07:34N 38°13' E 015°14'0 0.0
2014-Oct-23 06:34N 38°13' E 015°14'0 0.0
2014-Oct-23 05:34N 38°13' E 015°14'0 0.0
2014-Oct-22 17:33N 38°13' E 015°14'0 0.0
2014-Oct-22 16:33N 38°13' E 015°14'0 0.0
2014-Oct-22 15:33N 38°13' E 015°14'0 0.0
2014-Oct-22 14:33N 38°13' E 015°14'0 0.3
2014-Oct-22 13:33N 38°13' E 015°15'7 7.0
2014-Oct-22 12:34N 38°19' E 015°11'4 0.6
2014-Oct-22 05:33N 38°16' E 015°15'3 3.1
2014-Oct-22 04:33N 38°13' E 015°14'0 0.0
2014-Oct-21 18:34N 38°13' E 015°15'  
Track history (hours):
 
Tides and Currents Weather Stations Pressure Air Temp Water Temp Dewpoint Dewpoint Depression Visibility Wind Speed Wind Dir Waves Ship Positions

Daniela Morace

Last reported at 2014-Oct-31 15:14 UTC. Time now 2014-Nov-01 05:27 UTC.
Position N 38°20' E 015°09'.

Length 36 m; draft 1 m.

Type: Ship. MMSI: 247297500.

Date/timePositionNaut miles runAvg speedWind from/ knotsBaromVisibWave heightAir tempDewpointWater temp
2014-Oct-31 15:14N 38°20' E 015°09'913.1
2014-Oct-31 14:33N 38°13' E 015°15'9 8.7
2014-Oct-31 13:33N 38°21' E 015°11'7 1.0
2014-Oct-31 06:34N 38°16' E 015°16'10 0.7
2014-Oct-30 15:31N 38°22' E 015°06'1212.1
2014-Oct-30 14:33N 38°13' E 015°15'3 0.4
2014-Oct-30 06:33N 38°16' E 015°16'3 3.2
2014-Oct-30 05:33N 38°13' E 015°14'9 0.6
2014-Oct-29 15:16N 38°21' E 015°09'912.9
2014-Oct-29 14:34N 38°13' E 015°15'3 0.4
2014-Oct-29 06:33N 38°16' E 015°16'10 0.7
2014-Oct-28 15:27N 38°23' E 015°06'1213.8
2014-Oct-28 14:33N 38°13' E 015°15'8 8.2
2014-Oct-28 13:34N 38°20' E 015°09'6 0.9
2014-Oct-28 06:34N 38°16' E 015°16'6 0.4
2014-Oct-27 15:24N 38°20' E 015°10'8 9.3
2014-Oct-27 14:33N 38°13' E 015°15'6 6.2
2014-Oct-27 13:34N 38°18' E 015°11'6 0.8
2014-Oct-27 06:33N 38°14' E 015°16'1 1.0
2014-Oct-27 05:33N 38°13' E 015°14'7 0.5
2014-Oct-26 15:16N 38°20' E 015°10'810.9
2014-Oct-26 14:33N 38°13' E 015°15'5 4.7
2014-Oct-26 13:32N 38°18' E 015°13'3 0.4
2014-Oct-26 06:31N 38°15' E 015°15'8 0.5
2014-Oct-25 14:17N 38°21' E 015°08'1013.2
2014-Oct-25 13:34N 38°13' E 015°15'7 6.5
2014-Oct-25 12:34N 38°19' E 015°12'6 0.3
2014-Oct-24 17:33N 38°13' E 015°14'0 0.0
2014-Oct-24 16:33N 38°13' E 015°14'0 0.0
2014-Oct-24 15:33N 38°13' E 015°14'0 0.0
2014-Oct-24 14:33N 38°13' E 015°14'0 0.0
2014-Oct-24 13:33N 38°13' E 015°14'0 0.0
2014-Oct-24 12:33N 38°13' E 015°14'0 0.0
2014-Oct-24 11:33N 38°13' E 015°14'0 0.0
2014-Oct-24 10:33N 38°13' E 015°14'0 0.0
2014-Oct-24 09:33N 38°13' E 015°14'0 0.0
2014-Oct-24 08:33N 38°13' E 015°14'0 0.0
2014-Oct-24 07:33N 38°13' E 015°14'0 0.0
2014-Oct-24 06:33N 38°13' E 015°14'0 0.0
2014-Oct-23 17:18N 38°13' E 015°14'0 0.0
2014-Oct-23 16:34N 38°13' E 015°14'0 0.0
2014-Oct-23 15:33N 38°13' E 015°14'0 0.0
2014-Oct-23 14:34N 38°13' E 015°14'0 0.0
2014-Oct-23 13:33N 38°13' E 015°14'0 0.0
2014-Oct-23 12:33N 38°13' E 015°14'0 0.0
2014-Oct-23 11:33N 38°13' E 015°14'0 0.0
2014-Oct-23 10:33N 38°13' E 015°14'0 0.0
2014-Oct-23 09:34N 38°13' E 015°14'0 0.0
2014-Oct-23 08:33N 38°13' E 015°14'0 0.0
2014-Oct-23 07:34N 38°13' E 015°14'0 0.0
2014-Oct-23 06:34N 38°13' E 015°14'0 0.0
2014-Oct-23 05:34N 38°13' E 015°14'0 0.0
2014-Oct-22 17:33N 38°13' E 015°14'0 0.0
2014-Oct-22 16:33N 38°13' E 015°14'0 0.0
2014-Oct-22 15:33N 38°13' E 015°14'0 0.0
2014-Oct-22 14:33N 38°13' E 015°14'0 0.3
2014-Oct-22 13:33N 38°13' E 015°15'7 7.0
2014-Oct-22 12:34N 38°19' E 015°11'4 0.6
2014-Oct-22 05:33N 38°16' E 015°15'3 3.1
2014-Oct-22 04:33N 38°13' E 015°14'0 0.0
2014-Oct-21 18:34N 38°13' E 015°15'  

Dump ship's entire track history